Hon, Libya
Current Conditions -  °F | °C
As of 9:00 AM on Wednesday 26 Nov 2014 (Local Time) from DAUZ Reporting Station
Clear Clear  
Wind Chill: 10°   Ceiling: Unl
Heat Index: 10°   Visibility: 6mi
Dew Point: -1°   Wind: 13mph
Humidity: 47%   Direction: 60°ENE
Pressure: 29.94"   Gusts: NA
Location:  29.13°N, 15.95°E
Report Text: DAUZ 260600Z 06011KT CAVOK 10/M01 Q1014
Loading
Personal Weather Stations






























Interactive Weather Map New forecast layout! Learn more

10-Day Weather Forecast

Advertisements
Track Severe Weather on mobile